Time;durP1;ratioP1;P1;durP2;ratioP2;P2;SDS_P1;SDS_P2;PMS_P1;PMS_P2;Temp;Humidity;BMP_temperature;BMP_pressure;BME280_temperature;BME280_humidity;BME280_pressure;Samples;Min_cycle;Max_cycle;Signal;HPM_P1;HPM_P2
2022/05/26 00:00:51;;;;;;;2.03;1.90;;;12.80;99.90;;;;;;6093365;29;20312;-68
2022/05/26 00:03:58;;;;;;;6.10;2.17;;;12.90;99.90;;;;;;6092967;29;20300;-69
2022/05/26 00:07:05;;;;;;;2.22;2.08;;;12.90;99.90;;;;;;6092136;29;20280;-70
2022/05/26 00:10:11;;;;;;;2.35;1.95;;;12.80;99.90;;;;;;6093331;29;20281;-70
2022/05/26 00:13:16;;;;;;;2.78;1.83;;;12.80;99.90;;;;;;6093036;29;20300;-69
2022/05/26 00:16:23;;;;;;;5.95;2.15;;;12.80;99.90;;;;;;6094283;29;20273;-68
2022/05/26 00:19:29;;;;;;;4.53;1.90;;;12.70;99.90;;;;;;6092495;29;20315;-69
2022/05/26 00:22:34;;;;;;;7.50;2.05;;;12.70;99.90;;;;;;6092267;29;20304;-69
2022/05/26 00:25:40;;;;;;;7.30;1.90;;;12.80;99.90;;;;;;6092587;29;20360;-67
2022/05/26 00:28:45;;;;;;;12.20;2.20;;;12.80;99.90;;;;;;6092553;29;20600;-68
2022/05/26 00:31:52;;;;;;;13.65;2.60;;;12.90;99.90;;;;;;6092770;29;20281;-70
2022/05/26 00:34:57;;;;;;;11.20;2.17;;;12.90;99.90;;;;;;6091918;29;20300;-70
2022/05/26 00:38:04;;;;;;;8.93;2.10;;;12.80;99.90;;;;;;6092481;29;20300;-68
2022/05/26 00:41:13;;;;;;;9.30;1.80;;;12.80;99.90;;;;;;6092803;29;20296;-68
2022/05/26 00:44:19;;;;;;;15.50;1.70;;;12.80;99.90;;;;;;6092169;29;20307;-68
2022/05/26 00:47:29;;;;;;;7.05;1.63;;;12.90;99.90;;;;;;6091925;29;20301;-69
2022/05/26 00:50:41;;;;;;;2.55;1.30;;;13.00;99.90;;;;;;6092645;29;20277;-69
2022/05/26 00:53:54;;;;;;;2.55;1.25;;;13.00;99.90;;;;;;6092023;29;20300;-70
2022/05/26 00:57:03;;;;;;;1.40;1.30;;;13.00;99.90;;;;;;6091669;29;20478;-68
2022/05/26 01:00:15;;;;;;;1.45;1.35;;;13.10;99.90;;;;;;6092171;29;20308;-69
2022/05/26 01:03:27;;;;;;;5.10;1.73;;;13.20;99.90;;;;;;6092087;29;20297;-69
2022/05/26 01:06:36;;;;;;;1.50;1.40;;;13.00;99.90;;;;;;6092159;29;20276;-69
2022/05/26 01:09:41;;;;;;;1.70;1.13;;;12.80;99.90;;;;;;6092011;29;20596;-68
2022/05/26 01:12:46;;;;;;;2.15;1.17;;;12.80;99.90;;;;;;6092413;29;20481;-70
2022/05/26 01:15:58;;;;;;;2.20;1.40;;;12.70;99.90;;;;;;6092436;29;20555;-69
2022/05/26 01:19:33;;;;;;;1.65;1.50;;;12.70;99.90;;;;;;6096001;29;20571;-69
2022/05/26 01:23:20;;;;;;;1.45;1.35;;;12.60;99.90;;;;;;6096436;29;20316;-69
2022/05/26 01:27:24;;;;;;;3.90;1.58;;;12.50;99.90;;;;;;6097140;29;20304;-69
2022/05/26 01:30:41;;;;;;;4.40;1.70;;;12.50;99.90;;;;;;6094499;29;20288;-69
2022/05/26 01:33:51;;;;;;;5.90;2.13;;;12.40;99.90;;;;;;6096901;29;20300;-68
2022/05/26 01:37:04;;;;;;;1.40;1.30;;;12.40;99.90;;;;;;6096756;29;20277;-69
2022/05/26 01:40:23;;;;;;;6.40;1.85;;;12.40;99.90;;;;;;6094506;29;20448;-69
2022/05/26 01:43:34;;;;;;;3.95;1.42;;;12.40;99.90;;;;;;6096222;29;20312;-69
2022/05/26 01:46:42;;;;;;;1.33;1.33;;;12.40;99.90;;;;;;6096639;29;20348;-68
2022/05/26 01:49:55;;;;;;;2.88;1.38;;;12.30;99.90;;;;;;6096257;29;20304;-69
2022/05/26 01:53:14;;;;;;;3.55;1.65;;;12.30;99.90;;;;;;6095926;29;20477;-71
2022/05/26 01:56:26;;;;;;;5.32;1.50;;;12.20;99.90;;;;;;6096080;29;20463;-69
2022/05/26 01:59:36;;;;;;;10.65;1.67;;;12.20;99.90;;;;;;6096182;29;20379;-69
2022/05/26 02:02:50;;;;;;;6.75;1.85;;;12.20;99.90;;;;;;6096052;29;20316;-69
2022/05/26 02:06:05;;;;;;;3.40;1.60;;;12.20;99.90;;;;;;6096345;29;20292;-70
2022/05/26 02:09:14;;;;;;;3.30;1.40;;;12.10;99.90;;;;;;6095864;29;20300;-69
2022/05/26 02:12:26;;;;;;;1.77;1.67;;;12.10;99.90;;;;;;6096185;29;20439;-69
2022/05/26 02:15:38;;;;;;;1.27;1.25;;;12.10;99.90;;;;;;6096545;29;20276;-69
2022/05/26 02:18:51;;;;;;;1.75;1.38;;;12.00;99.90;;;;;;6095787;29;20301;-70
2022/05/26 02:22:06;;;;;;;6.07;1.60;;;11.90;99.90;;;;;;6096283;29;20312;-69
2022/05/26 02:25:17;;;;;;;3.55;1.40;;;11.90;99.90;;;;;;6095519;29;20280;-70
2022/05/26 02:28:23;;;;;;;1.35;1.35;;;11.90;99.90;;;;;;6101278;29;20297;-68
2022/05/26 02:31:30;;;;;;;4.50;1.30;;;11.90;99.90;;;;;;6110096;29;20240;-68
2022/05/26 02:34:38;;;;;;;2.05;1.60;;;11.90;99.90;;;;;;6106947;29;20305;-69
2022/05/26 02:37:48;;;;;;;1.70;1.60;;;11.90;99.90;;;;;;6095304;29;20481;-70
2022/05/26 02:40:54;;;;;;;2.38;1.52;;;11.90;99.90;;;;;;6095732;29;20300;-69
2022/05/26 02:44:00;;;;;;;4.15;1.38;;;12.00;99.90;;;;;;6094884;29;20317;-70
2022/05/26 02:47:24;;;;;;;2.58;1.50;;;12.00;99.90;;;;;;6094533;29;20455;-71
2022/05/26 02:50:46;;;;;;;1.92;1.70;;;11.90;99.90;;;;;;6095456;29;20277;-70
2022/05/26 02:54:00;;;;;;;3.15;1.98;;;12.00;99.90;;;;;;6095219;29;20300;-69
2022/05/26 02:57:15;;;;;;;1.60;1.50;;;11.90;99.90;;;;;;6094523;29;20281;-69
2022/05/26 03:00:31;;;;;;;1.52;1.40;;;12.00;99.90;;;;;;6095155;29;20279;-69
2022/05/26 03:03:42;;;;;;;4.32;1.58;;;11.90;99.90;;;;;;6091377;29;20603;-70
2022/05/26 03:06:51;;;;;;;2.88;1.45;;;11.90;99.90;;;;;;6094478;29;20269;-70
2022/05/26 03:09:58;;;;;;;1.52;1.40;;;12.00;99.90;;;;;;6094135;29;20300;-69
2022/05/26 03:13:03;;;;;;;1.30;1.30;;;11.90;99.90;;;;;;6094261;29;20327;-69
2022/05/26 03:16:12;;;;;;;1.80;1.70;;;11.90;99.90;;;;;;6094510;29;20280;-69
2022/05/26 03:19:19;;;;;;;2.63;1.20;;;11.90;99.90;;;;;;6094091;29;20308;-68
2022/05/26 03:22:24;;;;;;;4.22;1.33;;;12.00;99.90;;;;;;6093786;29;20296;-69
2022/05/26 03:25:32;;;;;;;1.42;1.38;;;11.90;99.90;;;;;;6092920;29;20373;-70
2022/05/26 03:28:37;;;;;;;1.77;1.38;;;11.90;99.90;;;;;;6093935;29;20312;-68
2022/05/26 03:31:43;;;;;;;1.58;1.50;;;12.10;99.90;;;;;;6094501;29;20284;-69
2022/05/26 03:41:38;;;;;;;2.40;1.60;;;12.10;99.90;;;;;;6093763;29;20592;-69
2022/05/26 03:44:43;;;;;;;1.73;1.50;;;12.20;99.90;;;;;;6092976;29;20306;-69
2022/05/26 03:47:49;;;;;;;1.35;1.25;;;12.30;99.90;;;;;;6093433;29;20303;-69
2022/05/26 03:50:54;;;;;;;1.38;1.38;;;12.30;99.90;;;;;;6093796;29;20277;-69
2022/05/26 03:54:00;;;;;;;1.20;1.20;;;12.30;99.90;;;;;;6093138;29;20304;-69
2022/05/26 03:57:07;;;;;;;2.58;1.60;;;12.40;99.90;;;;;;6092991;29;20296;-69
2022/05/26 04:00:17;;;;;;;1.35;1.27;;;12.40;99.90;;;;;;6092665;29;20276;-70
2022/05/26 04:03:23;;;;;;;1.50;1.40;;;12.40;99.90;;;;;;6093027;29;20300;-69
2022/05/26 04:06:28;;;;;;;2.08;1.50;;;12.50;99.90;;;;;;6093451;29;20277;-69
2022/05/26 04:09:34;;;;;;;1.63;1.52;;;12.60;99.90;;;;;;6092738;29;20313;-70
2022/05/26 04:12:42;;;;;;;1.30;1.30;;;12.60;99.90;;;;;;6093068;29;20456;-68
2022/05/26 04:15:47;;;;;;;2.42;1.35;;;12.70;99.90;;;;;;6092935;29;20278;-70
2022/05/26 04:18:53;;;;;;;5.90;2.00;;;12.80;99.90;;;;;;6092805;29;20559;-69
2022/05/26 04:22:19;;;;;;;4.75;1.60;;;12.90;99.90;;;;;;6092642;29;20296;-69
2022/05/26 04:25:25;;;;;;;3.72;1.40;;;13.00;99.90;;;;;;6092081;29;20284;-68
2022/05/26 04:28:41;;;;;;;1.30;1.30;;;13.10;99.90;;;;;;6091794;29;20304;-69
2022/05/26 04:31:47;;;;;;;1.40;1.40;;;13.10;99.90;;;;;;6092902;29;20276;-70
2022/05/26 04:34:52;;;;;;;5.00;1.48;;;13.10;99.90;;;;;;6092577;29;20368;-67
2022/05/26 04:37:58;;;;;;;5.10;1.30;;;13.20;99.90;;;;;;6092270;29;20384;-69
2022/05/26 04:41:06;;;;;;;1.58;1.48;;;13.20;99.90;;;;;;6092749;29;20276;-69
2022/05/26 04:44:17;;;;;;;2.28;1.40;;;13.20;99.90;;;;;;6090772;29;20485;-70
2022/05/26 04:47:23;;;;;;;3.20;1.30;;;13.30;99.90;;;;;;6090650;29;20276;-69
2022/05/26 04:50:29;;;;;;;3.78;1.73;;;13.30;99.90;;;;;;6092429;29;20281;-70
2022/05/26 04:53:34;;;;;;;1.20;1.10;;;13.30;99.90;;;;;;6091629;29;20441;-70
2022/05/26 04:56:39;;;;;;;1.40;1.30;;;13.40;99.90;;;;;;6092772;29;20466;-68
2022/05/26 04:59:46;;;;;;;1.30;1.20;;;13.40;99.90;;;;;;6091928;29;20304;-68
2022/05/26 05:02:53;;;;;;;5.53;1.25;;;13.60;99.90;;;;;;6091438;29;20489;-68
2022/05/26 05:05:59;;;;;;;1.30;1.20;;;13.60;99.90;;;;;;6091848;29;20490;-69
2022/05/26 05:09:04;;;;;;;1.48;1.25;;;13.60;99.90;;;;;;6092142;29;20301;-70
2022/05/26 05:12:15;;;;;;;1.55;1.40;;;13.70;99.90;;;;;;6091259;29;20457;-69
2022/05/26 05:15:29;;;;;;;1.27;1.25;;;13.70;99.90;;;;;;6091365;29;20281;-69
2022/05/26 05:18:35;;;;;;;1.40;1.40;;;13.80;99.90;;;;;;6091380;29;20300;-69
2022/05/26 05:21:44;;;;;;;2.92;1.25;;;13.80;99.90;;;;;;6092251;29;20272;-69
2022/05/26 05:24:54;;;;;;;4.60;1.38;;;13.80;99.90;;;;;;6092465;29;20329;-70
2022/05/26 05:28:03;;;;;;;3.10;1.50;;;13.90;99.90;;;;;;6091598;29;20312;-69
2022/05/26 05:31:14;;;;;;;3.15;1.40;;;14.00;99.90;;;;;;6092437;29;20296;-70
2022/05/26 05:34:25;;;;;;;1.30;1.30;;;14.00;99.90;;;;;;6091633;29;20304;-69
2022/05/26 05:37:31;;;;;;;2.38;1.27;;;14.20;99.90;;;;;;6091251;29;20276;-69
2022/05/26 05:40:37;;;;;;;1.33;0.93;;;14.50;99.90;;;;;;6092101;29;20276;-69
2022/05/26 05:43:43;;;;;;;1.63;1.50;;;14.70;99.90;;;;;;6091091;29;20304;-69
2022/05/26 05:46:57;;;;;;;1.20;1.20;;;14.80;99.90;;;;;;6092064;29;20572;-68
2022/05/26 05:50:03;;;;;;;1.58;1.10;;;14.80;99.90;;;;;;6091542;29;20317;-69
2022/05/26 05:53:09;;;;;;;1.23;1.10;;;14.90;99.90;;;;;;6091519;29;20320;-69
2022/05/26 05:56:15;;;;;;;1.10;1.00;;;15.10;99.90;;;;;;6092202;29;20559;-68
2022/05/26 05:59:20;;;;;;;2.15;1.20;;;15.20;99.90;;;;;;6091746;29;20301;-68
2022/05/26 06:02:27;;;;;;;1.00;1.00;;;15.20;99.90;;;;;;6091035;29;20272;-69
2022/05/26 06:05:41;;;;;;;2.40;1.00;;;15.30;99.90;;;;;;6095141;29;20296;-69
2022/05/26 06:08:46;;;;;;;0.90;0.90;;;15.40;99.90;;;;;;6095596;29;20300;-68
2022/05/26 06:11:51;;;;;;;7.45;1.10;;;15.40;99.90;;;;;;6095877;29;20268;-69
2022/05/26 06:14:57;;;;;;;1.00;1.00;;;15.60;99.90;;;;;;6095384;29;20300;-70
2022/05/26 06:18:06;;;;;;;2.25;1.40;;;15.70;99.90;;;;;;6095747;29;20312;-70
2022/05/26 06:21:11;;;;;;;1.73;1.67;;;15.80;99.90;;;;;;6094511;29;20459;-69
2022/05/26 06:24:22;;;;;;;2.30;1.45;;;16.00;99.90;;;;;;6096126;29;20308;-69
2022/05/26 06:30:51;;;;;;;0.95;0.95;;;16.20;99.90;;;;;;6095945;29;20280;-70
2022/05/26 06:37:22;;;;;;;1.10;0.90;;;16.30;99.90;;;;;;6093586;29;20277;-69
2022/05/26 06:40:29;;;;;;;1.20;1.10;;;16.20;99.70;;;;;;6095337;29;20357;-70
2022/05/26 06:43:35;;;;;;;0.93;0.82;;;16.30;99.10;;;;;;6093036;29;20305;-67
2022/05/26 06:46:41;;;;;;;1.05;1.05;;;16.30;98.50;;;;;;6093434;29;20276;-69
2022/05/26 06:49:48;;;;;;;2.72;1.20;;;16.40;99.10;;;;;;6095111;29;20458;-68
2022/05/26 06:52:54;;;;;;;1.00;1.00;;;16.50;98.20;;;;;;6094979;29;20300;-69
2022/05/26 06:56:00;;;;;;;1.13;1.00;;;16.60;97.90;;;;;;6095079;29;20272;-69
2022/05/26 06:59:05;;;;;;;3.00;1.20;;;16.50;97.10;;;;;;6094505;29;20304;-68
2022/05/26 07:02:14;;;;;;;2.60;0.90;;;16.40;96.20;;;;;;6096137;29;20555;-68
2022/05/26 07:05:21;;;;;;;2.20;0.80;;;16.20;96.00;;;;;;6094606;29;20308;-68
2022/05/26 07:08:26;;;;;;;1.48;0.90;;;16.30;96.00;;;;;;6094227;29;20564;-70
2022/05/26 07:11:37;;;;;;;1.10;0.88;;;16.50;95.80;;;;;;6095523;29;20272;-70
2022/05/26 07:14:42;;;;;;;3.25;1.02;;;16.40;95.90;;;;;;6094019;29;20336;-69
2022/05/26 07:17:48;;;;;;;1.98;0.90;;;16.50;95.20;;;;;;6094248;29;20375;-70
2022/05/26 07:20:55;;;;;;;0.80;0.80;;;16.40;95.20;;;;;;6094550;29;20281;-71
2022/05/26 07:24:01;;;;;;;1.58;0.90;;;16.30;96.00;;;;;;6093141;29;20300;-69
2022/05/26 07:27:06;;;;;;;1.50;1.40;;;16.30;95.70;;;;;;6094379;29;20309;-69
2022/05/26 07:30:13;;;;;;;1.10;1.00;;;16.50;96.20;;;;;;6094155;29;20296;-70
2022/05/26 07:33:19;;;;;;;1.35;0.90;;;16.70;96.00;;;;;;6094431;29;20300;-69
2022/05/26 07:43:14;;;;;;;1.77;0.80;;;16.90;94.80;;;;;;6095988;29;20301;-68
2022/05/26 07:46:23;;;;;;;0.95;0.95;;;17.00;95.00;;;;;;6100503;29;20297;-68
2022/05/26 07:49:28;;;;;;;0.90;0.90;;;16.90;96.00;;;;;;6100894;29;20300;-69
2022/05/26 07:52:35;;;;;;;3.97;1.30;;;16.90;95.80;;;;;;6096159;29;20309;-69
2022/05/26 07:55:42;;;;;;;1.98;1.05;;;17.20;96.00;;;;;;6093853;29;20280;-69
2022/05/26 07:58:48;;;;;;;1.95;1.00;;;17.20;94.50;;;;;;6092633;29;20304;-69
2022/05/26 08:01:53;;;;;;;1.52;0.75;;;17.30;94.50;;;;;;6092718;29;20313;-69
2022/05/26 08:04:59;;;;;;;0.77;0.77;;;17.30;94.30;;;;;;6092345;29;20516;-69
2022/05/26 08:08:06;;;;;;;1.42;0.90;;;17.40;94.00;;;;;;6092152;29;20299;-69
2022/05/26 08:11:12;;;;;;;1.55;1.02;;;17.40;93.80;;;;;;6093160;29;20284;-70
2022/05/26 08:14:17;;;;;;;2.60;1.00;;;17.40;94.00;;;;;;6092780;29;20300;-69
2022/05/26 08:17:24;;;;;;;1.98;0.80;;;17.30;94.40;;;;;;6092461;29;20281;-68
2022/05/26 08:20:29;;;;;;;0.98;0.98;;;17.30;94.20;;;;;;6092166;29;20376;-69
2022/05/26 08:23:36;;;;;;;3.70;1.00;;;17.20;94.70;;;;;;6092907;29;20300;-69
2022/05/26 08:26:42;;;;;;;1.35;0.95;;;17.10;95.10;;;;;;6092043;29;20308;-70
2022/05/26 08:29:47;;;;;;;2.05;1.10;;;17.00;95.20;;;;;;6092560;29;20305;-68
2022/05/26 08:32:56;;;;;;;0.90;0.90;;;17.00;95.20;;;;;;6091990;29;20459;-70
2022/05/26 08:36:02;;;;;;;1.30;1.20;;;17.10;95.80;;;;;;6092762;29;20280;-69
2022/05/26 08:39:09;;;;;;;1.27;1.00;;;17.00;96.10;;;;;;6092813;29;20308;-68
2022/05/26 08:42:20;;;;;;;2.13;0.85;;;17.00;96.30;;;;;;6091947;29;20575;-68
2022/05/26 08:45:27;;;;;;;10.07;1.00;;;16.90;96.40;;;;;;6092624;29;20296;-69
2022/05/26 08:48:58;;;;;;;1.20;1.13;;;17.00;96.30;;;;;;6091881;29;20304;-69
2022/05/26 08:52:09;;;;;;;0.98;0.98;;;17.00;96.70;;;;;;6091810;29;20272;-68
2022/05/26 08:55:19;;;;;;;1.45;0.85;;;17.10;96.30;;;;;;6091650;29;20308;-69
2022/05/26 08:58:29;;;;;;;2.63;1.00;;;17.10;96.20;;;;;;6092165;29;20556;-70
2022/05/26 09:01:35;;;;;;;1.75;1.17;;;17.20;95.50;;;;;;6092292;29;20277;-69
2022/05/26 09:04:46;;;;;;;1.38;1.08;;;17.30;95.50;;;;;;6091912;29;20300;-69
2022/05/26 09:14:48;;;;;;;4.10;1.10;;;17.30;95.10;;;;;;6090472;29;20300;-68
2022/05/26 09:17:54;;;;;;;3.42;1.05;;;17.30;95.00;;;;;;6091541;29;20309;-67
2022/05/26 09:21:16;;;;;;;3.33;1.30;;;17.10;95.70;;;;;;6092207;29;20566;-69
2022/05/26 09:24:26;;;;;;;1.10;1.10;;;17.00;96.50;;;;;;6090409;29;20584;-68
2022/05/26 09:27:36;;;;;;;3.38;1.23;;;16.80;97.00;;;;;;6091650;29;20312;-69
2022/05/26 09:30:41;;;;;;;1.02;1.02;;;17.00;96.70;;;;;;6092402;29;20437;-68
2022/05/26 09:34:06;;;;;;;5.50;1.10;;;17.10;96.80;;;;;;6090536;29;20304;-68
2022/05/26 09:37:12;;;;;;;1.10;1.10;;;17.10;96.70;;;;;;6091779;29;20280;-69
2022/05/26 09:40:21;;;;;;;1.50;1.00;;;17.30;95.90;;;;;;6095557;29;20284;-69
2022/05/26 09:43:28;;;;;;;1.73;1.02;;;17.40;96.00;;;;;;6096709;29;20512;-67
2022/05/26 09:46:33;;;;;;;2.97;1.10;;;17.50;95.80;;;;;;6096571;29;20595;-69
2022/05/26 09:49:41;;;;;;;1.73;1.10;;;17.40;94.80;;;;;;6095782;29;20547;-68
2022/05/26 09:52:49;;;;;;;1.27;1.17;;;17.40;95.10;;;;;;6095887;29;20583;-68
2022/05/26 09:55:55;;;;;;;5.80;1.27;;;17.40;95.90;;;;;;6096801;29;20548;-69
2022/05/26 09:59:27;;;;;;;1.55;0.80;;;17.60;95.10;;;;;;6096045;29;20575;-68
2022/05/26 10:02:38;;;;;;;4.82;1.10;;;17.50;94.40;;;;;;6096170;29;20303;-68
2022/05/26 10:05:47;;;;;;;5.25;1.38;;;17.70;94.70;;;;;;6096236;29;20284;-68
2022/05/26 10:09:07;;;;;;;1.10;1.10;;;17.80;94.90;;;;;;6095788;29;20325;-69
2022/05/26 10:12:22;;;;;;;3.75;1.00;;;17.80;94.60;;;;;;6094519;29;20552;-68
2022/05/26 10:15:42;;;;;;;5.45;1.10;;;17.80;94.70;;;;;;6095038;29;20280;-68
2022/05/26 10:19:06;;;;;;;2.78;1.13;;;17.70;94.10;;;;;;6095998;29;20304;-69
2022/05/26 10:22:29;;;;;;;4.03;1.13;;;17.80;94.40;;;;;;6096374;29;20406;-69
2022/05/26 10:25:37;;;;;;;7.25;1.10;;;17.60;94.30;;;;;;6094766;29;20276;-69
2022/05/26 10:29:01;;;;;;;1.30;1.30;;;17.60;95.00;;;;;;6095071;29;20300;-68
2022/05/26 10:32:37;;;;;;;1.60;1.30;;;17.70;94.30;;;;;;6095773;29;20277;-68
2022/05/26 10:35:55;;;;;;;1.92;1.10;;;17.80;94.60;;;;;;6094967;29;20280;-68
2022/05/26 10:39:10;;;;;;;2.92;1.20;;;17.80;95.50;;;;;;6094619;29;20296;-68
2022/05/26 10:42:23;;;;;;;2.30;1.23;;;17.70;94.00;;;;;;6094340;29;20276;-67
2022/05/26 10:45:33;;;;;;;3.58;1.40;;;17.50;94.40;;;;;;6095649;29;20272;-68
2022/05/26 10:48:45;;;;;;;4.03;1.58;;;17.40;94.80;;;;;;6094482;29;20300;-69
2022/05/26 10:51:57;;;;;;;1.35;1.25;;;17.20;96.00;;;;;;6094615;29;20277;-69
2022/05/26 10:55:10;;;;;;;1.85;1.75;;;17.30;95.30;;;;;;6094207;29;20297;-67
2022/05/26 10:58:22;;;;;;;2.17;1.80;;;17.40;94.90;;;;;;6094307;29;20308;-68
2022/05/26 11:01:34;;;;;;;1.60;1.52;;;17.40;93.70;;;;;;6094600;29;20273;-69
2022/05/26 11:04:49;;;;;;;3.42;2.10;;;17.30;94.00;;;;;;6094479;29;20296;-69
2022/05/26 11:07:56;;;;;;;1.77;1.02;;;17.40;95.00;;;;;;6094237;29;20309;-68
2022/05/26 11:11:06;;;;;;;1.95;1.10;;;17.40;95.70;;;;;;6094113;29;20268;-68
2022/05/26 11:17:45;;;;;;;6.05;5.45;;;17.60;95.40;;;;;;6093916;29;20349;-69
2022/05/26 11:20:54;;;;;;;2.97;2.70;;;17.80;95.00;;;;;;6094433;29;20280;-68
2022/05/26 11:24:00;;;;;;;1.88;1.88;;;17.80;94.50;;;;;;6093707;29;20320;-69
2022/05/26 11:27:12;;;;;;;1.35;1.35;;;17.70;94.30;;;;;;6094046;29;20304;-68
2022/05/26 11:37:40;;;;;;;2.15;1.40;;;17.50;93.60;;;;;;6093116;29;20304;-68
2022/05/26 11:40:49;;;;;;;1.60;1.50;;;17.40;93.70;;;;;;6092887;29;20281;-68
2022/05/26 11:44:06;;;;;;;3.17;2.70;;;17.30;93.10;;;;;;6093744;29;20434;-69
2022/05/26 11:47:34;;;;;;;1.45;1.45;;;17.10;93.10;;;;;;6094215;29;20353;-68
2022/05/26 11:50:58;;;;;;;1.30;1.17;;;16.70;93.60;;;;;;6092798;29;20280;-68
2022/05/26 11:54:05;;;;;;;1.00;1.00;;;16.70;93.80;;;;;;6093342;29;20296;-69
2022/05/26 11:57:35;;;;;;;1.77;1.38;;;16.60;94.40;;;;;;6093137;29;20272;-69
2022/05/26 12:00:43;;;;;;;1.10;1.10;;;16.70;94.70;;;;;;6092540;29;20368;-69
2022/05/26 12:04:16;;;;;;;1.00;1.00;;;16.80;94.60;;;;;;6092745;29;20301;-68
2022/05/26 12:07:37;;;;;;;1.77;0.90;;;16.90;94.80;;;;;;6092931;29;20277;-68
2022/05/26 12:10:54;;;;;;;0.93;0.93;;;16.80;94.20;;;;;;6093574;29;20273;-69
2022/05/26 12:14:03;;;;;;;1.08;1.08;;;16.80;93.40;;;;;;6093035;29;20304;-69
2022/05/26 12:17:33;;;;;;;1.58;1.58;;;17.00;93.10;;;;;;6093491;29;20276;-68
2022/05/26 12:20:42;;;;;;;1.58;1.40;;;17.10;93.60;;;;;;6092136;29;20288;-68
2022/05/26 12:23:48;;;;;;;1.92;1.02;;;17.10;94.20;;;;;;6092982;29;20484;-68
2022/05/26 12:26:55;;;;;;;0.80;0.80;;;17.20;93.70;;;;;;6092647;29;20296;-68
2022/05/26 12:30:06;;;;;;;0.80;0.80;;;17.30;93.30;;;;;;6092507;29;20394;-69
2022/05/26 12:33:56;;;;;;;2.08;0.90;;;17.30;93.10;;;;;;6092537;29;20432;-68
2022/05/26 12:37:03;;;;;;;1.50;0.93;;;17.30;92.80;;;;;;6072362;29;20296;-68
2022/05/26 12:40:37;;;;;;;1.85;1.10;;;17.30;93.00;;;;;;6092430;29;20315;-69
2022/05/26 12:44:04;;;;;;;2.15;1.00;;;17.20;93.60;;;;;;6092868;29;20433;-69
2022/05/26 12:47:38;;;;;;;2.10;0.90;;;17.20;93.30;;;;;;6092668;29;20304;-68
2022/05/26 12:50:44;;;;;;;1.50;1.13;;;17.10;93.70;;;;;;6091841;29;20304;-68
2022/05/26 12:53:54;;;;;;;1.08;1.00;;;17.30;93.60;;;;;;6092582;29;20312;-68
2022/05/26 12:57:00;;;;;;;1.05;1.00;;;17.30;93.80;;;;;;6092288;29;20455;-69
2022/05/26 13:00:33;;;;;;;0.80;0.80;;;17.40;93.80;;;;;;6092056;29;20308;-68
2022/05/26 13:03:41;;;;;;;2.15;1.00;;;17.40;94.00;;;;;;6090870;29;20407;-68
2022/05/26 13:06:51;;;;;;;3.22;0.93;;;17.30;94.90;;;;;;6093041;29;20468;-69
2022/05/26 13:09:56;;;;;;;0.93;0.70;;;17.40;94.40;;;;;;6092967;29;20312;-68
2022/05/26 13:13:02;;;;;;;5.63;2.67;;;17.50;94.00;;;;;;6092818;29;20304;-68
2022/05/26 13:16:30;;;;;;;3.80;3.50;;;17.50;93.40;;;;;;6094274;29;20276;-67
2022/05/26 13:19:43;;;;;;;5.53;5.03;;;17.50;93.30;;;;;;6100675;29;20313;-68
2022/05/26 13:22:48;;;;;;;3.85;3.55;;;17.40;93.60;;;;;;6101514;29;20317;-69
2022/05/26 13:25:55;;;;;;;1.75;1.65;;;17.40;93.70;;;;;;6101378;29;20264;-67
2022/05/26 13:29:02;;;;;;;2.10;2.00;;;17.40;93.80;;;;;;6094894;29;20384;-68
2022/05/26 13:35:41;;;;;;;2.00;1.20;;;17.40;93.90;;;;;;6091606;29;20284;-69
2022/05/26 13:38:48;;;;;;;2.53;2.40;;;17.30;93.70;;;;;;6091304;29;20300;-68
2022/05/26 13:41:54;;;;;;;3.65;3.30;;;17.20;94.80;;;;;;6092097;29;20281;-68
2022/05/26 13:45:01;;;;;;;4.85;4.32;;;17.20;94.60;;;;;;6090006;29;20300;-69
2022/05/26 13:48:34;;;;;;;1.95;1.85;;;17.10;94.60;;;;;;6091636;29;20300;-68
2022/05/26 13:51:42;;;;;;;1.67;1.40;;;17.20;94.90;;;;;;6091610;29;20300;-68
2022/05/26 13:54:53;;;;;;;1.85;1.10;;;17.10;95.10;;;;;;6092101;29;20300;-70
2022/05/26 13:58:00;;;;;;;1.00;0.90;;;17.10;95.50;;;;;;6091512;29;20300;-69
2022/05/26 14:01:08;;;;;;;2.95;1.23;;;17.10;94.90;;;;;;6091116;29;20552;-69
2022/05/26 14:04:24;;;;;;;2.22;1.70;;;17.10;95.30;;;;;;6090926;29;20300;-69
2022/05/26 14:07:34;;;;;;;1.38;1.38;;;17.30;95.10;;;;;;6091327;29;20357;-68
2022/05/26 14:10:46;;;;;;;1.35;1.20;;;17.20;95.10;;;;;;6091377;29;20304;-70
2022/05/26 14:13:52;;;;;;;2.05;1.30;;;17.20;95.50;;;;;;6091072;29;20300;-69
2022/05/26 14:16:58;;;;;;;1.17;0.90;;;17.20;95.90;;;;;;6091982;29;20296;-69
2022/05/26 14:20:24;;;;;;;1.10;1.10;;;17.30;95.70;;;;;;6090865;29;20300;-69
2022/05/26 14:23:30;;;;;;;3.80;1.50;;;17.30;95.80;;;;;;6091741;29;20615;-69
2022/05/26 14:26:40;;;;;;;3.10;1.55;;;17.00;96.20;;;;;;6094472;29;20276;-69
2022/05/26 14:29:47;;;;;;;1.40;1.40;;;16.80;97.10;;;;;;6095683;29;20309;-69
2022/05/26 14:32:54;;;;;;;1.10;1.10;;;16.70;97.50;;;;;;6095128;29;20240;-68
2022/05/26 14:36:01;;;;;;;1.42;1.33;;;16.80;97.40;;;;;;6095751;29;20296;-67
2022/05/26 14:39:06;;;;;;;2.83;1.27;;;16.90;97.60;;;;;;6095053;29;20304;-68
2022/05/26 14:42:16;;;;;;;1.30;1.20;;;17.00;97.40;;;;;;6095378;29;20280;-68
2022/05/26 14:45:22;;;;;;;1.60;1.50;;;17.00;97.50;;;;;;6094901;29;20281;-70
2022/05/26 14:48:27;;;;;;;4.80;2.05;;;16.90;97.50;;;;;;6094658;29;20296;-67
2022/05/26 14:51:34;;;;;;;1.85;1.75;;;16.80;97.70;;;;;;6095050;29;20296;-67
2022/05/26 14:58:20;;;;;;;2.30;2.13;;;16.70;98.70;;;;;;6046001;29;20374;-68
2022/05/26 15:01:25;;;;;;;2.60;1.80;;;16.70;99.00;;;;;;6045833;29;20281;-69
2022/05/26 15:04:31;;;;;;;3.75;3.50;;;16.70;99.20;;;;;;6093679;29;20316;-67
2022/05/26 15:07:40;;;;;;;3.85;3.33;;;16.60;99.40;;;;;;6094549;29;20392;-69
2022/05/26 15:10:48;;;;;;;5.97;4.18;;;16.60;99.90;;;;;;6093544;29;20292;-69
2022/05/26 15:13:53;;;;;;;2.33;2.30;;;16.50;99.90;;;;;;6095231;29;20305;-68
2022/05/26 15:17:01;;;;;;;2.30;2.20;;;16.30;99.90;;;;;;6094117;29;20284;-68
2022/05/26 15:20:12;;;;;;;2.95;2.80;;;16.50;99.90;;;;;;6094963;29;20300;-69
2022/05/26 15:23:19;;;;;;;11.65;2.63;;;16.60;99.90;;;;;;6094209;29;20300;-68
2022/05/26 15:26:27;;;;;;;3.95;2.90;;;16.50;99.90;;;;;;6094798;29;20281;-67
2022/05/26 15:29:33;;;;;;;1.83;1.80;;;16.50;99.90;;;;;;6094292;29;20300;-67
2022/05/26 15:32:41;;;;;;;1.80;1.80;;;16.50;99.90;;;;;;6094339;29;20297;-68
2022/05/26 15:35:46;;;;;;;2.00;2.00;;;16.30;99.90;;;;;;6094620;29;20272;-69
2022/05/26 15:38:54;;;;;;;3.15;2.80;;;16.30;99.90;;;;;;6094561;29;20304;-66
2022/05/26 15:42:00;;;;;;;2.42;2.20;;;16.20;99.90;;;;;;6095360;29;20285;-68
2022/05/26 15:45:08;;;;;;;5.47;2.00;;;16.10;99.90;;;;;;6094512;29;20312;-69
2022/05/26 15:48:15;;;;;;;2.10;2.00;;;16.10;99.90;;;;;;6094055;29;20308;-67
2022/05/26 15:51:20;;;;;;;1.90;1.40;;;16.00;99.90;;;;;;6093035;29;20296;-67
2022/05/26 15:54:28;;;;;;;1.95;1.85;;;16.00;99.90;;;;;;6092579;29;20300;-67
2022/05/26 15:57:37;;;;;;;1.60;1.60;;;15.90;99.90;;;;;;6093093;29;20328;-67
2022/05/26 16:00:42;;;;;;;1.75;1.65;;;15.80;99.90;;;;;;6094899;29;20276;-68
2022/05/26 16:03:49;;;;;;;1.60;1.60;;;15.80;99.90;;;;;;6093732;29;20595;-67
2022/05/26 16:06:55;;;;;;;1.50;1.50;;;15.90;99.90;;;;;;6094481;29;20269;-68
2022/05/26 16:10:03;;;;;;;1.75;1.70;;;16.10;99.90;;;;;;6093860;29;20309;-68
2022/05/26 16:13:10;;;;;;;1.23;1.23;;;16.40;99.90;;;;;;6092453;29;20316;-68
2022/05/26 16:16:16;;;;;;;1.40;1.40;;;16.30;99.90;;;;;;6094003;29;20569;-67
2022/05/26 16:19:21;;;;;;;1.58;1.58;;;16.30;99.90;;;;;;6092641;29;20300;-68
2022/05/26 16:22:28;;;;;;;1.75;1.70;;;16.40;99.90;;;;;;6093848;29;20280;-68
2022/05/26 16:25:35;;;;;;;1.70;1.60;;;16.30;99.90;;;;;;6091350;29;20276;-68
2022/05/26 16:28:41;;;;;;;1.63;1.52;;;16.30;99.90;;;;;;6092404;29;20308;-69
2022/05/26 16:31:46;;;;;;;1.63;1.60;;;16.40;99.90;;;;;;6092629;29;20301;-69
2022/05/26 16:38:17;;;;;;;2.53;2.50;;;16.70;99.90;;;;;;6093068;29;20480;-68
2022/05/26 16:41:25;;;;;;;1.90;1.80;;;16.40;99.90;;;;;;6093122;29;20284;-67
2022/05/26 16:44:30;;;;;;;2.78;2.47;;;16.30;99.90;;;;;;6092326;29;20300;-68
2022/05/26 16:47:36;;;;;;;1.90;1.90;;;16.30;99.90;;;;;;6091185;29;20564;-69
2022/05/26 16:50:42;;;;;;;4.13;2.55;;;16.30;99.90;;;;;;6092946;29;20285;-68
2022/05/26 16:53:47;;;;;;;2.63;2.45;;;16.30;99.90;;;;;;6091697;29;20501;-70
2022/05/26 16:56:55;;;;;;;1.75;1.73;;;16.10;99.90;;;;;;6091787;29;20367;-68
2022/05/26 17:00:01;;;;;;;1.42;1.42;;;16.20;99.90;;;;;;6091490;29;20304;-68
2022/05/26 17:03:07;;;;;;;1.63;1.27;;;16.10;99.90;;;;;;6091850;29;20305;-68
2022/05/26 17:06:12;;;;;;;1.85;1.73;;;16.20;99.90;;;;;;6092392;29;20313;-68
2022/05/26 17:09:26;;;;;;;2.42;1.30;;;16.30;99.90;;;;;;6091827;29;20299;-69
2022/05/26 17:22:34;;;;;;;1.48;1.38;;;16.20;99.90;;;;;;6066924;29;20328;-68
2022/05/26 17:25:39;;;;;;;3.20;2.88;;;16.20;99.90;;;;;;6068935;29;20277;-68